createdAt,value
2023-02-09T00:02:01.541Z,47.30
2023-02-09T00:07:04.659Z,46.00
2023-02-09T00:12:26.464Z,47.10
2023-02-09T00:17:29.334Z,47.10
2023-02-09T00:22:32.859Z,47.10
2023-02-09T00:27:35.950Z,48.00
2023-02-09T00:32:39.041Z,44.20
2023-02-09T00:37:42.041Z,43.30
2023-02-09T00:42:44.973Z,42.20
2023-02-09T00:47:48.251Z,40.90
2023-02-09T00:52:51.187Z,41.10
2023-02-09T00:57:54.058Z,40.60
2023-02-09T01:02:57.464Z,40.50
2023-02-09T01:08:00.527Z,36.60
2023-02-09T01:13:03.338Z,39.30
2023-02-09T01:18:07.719Z,39.90
2023-02-09T01:23:10.629Z,35.00
2023-02-09T01:28:13.491Z,39.10
2023-02-09T01:33:16.845Z,38.50
2023-02-09T01:38:19.733Z,38.60
2023-02-09T01:43:22.636Z,36.80
2023-02-09T01:48:28.533Z,36.00
2023-02-09T01:53:31.448Z,36.30
2023-02-09T01:58:34.377Z,33.90
2023-02-09T02:03:37.200Z,34.00
2023-02-09T02:08:58.081Z,36.90
2023-02-09T02:14:01.010Z,33.00
2023-02-09T02:19:37.940Z,35.60
2023-02-09T02:24:53.259Z,36.00
2023-02-09T02:30:17.645Z,31.30
2023-02-09T02:35:41.579Z,31.60
2023-02-09T02:41:19.939Z,34.30
2023-02-09T02:46:35.844Z,33.70
2023-02-09T02:51:46.817Z,34.20
2023-02-09T02:56:54.647Z,31.80
2023-02-09T03:02:13.740Z,31.50
2023-02-09T03:07:17.589Z,30.50
2023-02-09T03:12:37.458Z,33.30
2023-02-09T03:17:47.899Z,32.30
2023-02-09T03:22:58.404Z,31.00
2023-02-09T03:28:23.622Z,31.80
2023-02-09T03:33:31.373Z,29.90
2023-02-09T03:38:34.281Z,30.40
2023-02-09T03:43:56.485Z,30.00
2023-02-09T03:48:59.870Z,30.10
2023-02-09T03:54:03.897Z,29.00
2023-02-09T03:59:06.899Z,28.70
2023-02-09T04:04:09.868Z,30.70
2023-02-09T04:09:12.816Z,29.60
2023-02-09T04:14:15.823Z,28.80
2023-02-09T04:19:18.734Z,28.90
2023-02-09T04:24:21.930Z,29.10
2023-02-09T04:29:25.257Z,29.70
2023-02-09T04:34:28.121Z,28.50
2023-02-09T04:39:31.042Z,27.40
2023-02-09T04:44:34.937Z,28.60
2023-02-09T04:49:37.761Z,28.00
2023-02-09T04:54:40.677Z,27.60
2023-02-09T04:59:45.035Z,28.30
2023-02-09T05:04:49.291Z,30.00
2023-02-09T05:09:54.774Z,29.20
2023-02-09T05:14:57.774Z,28.90
2023-02-09T05:20:00.595Z,27.70
2023-02-09T05:25:03.444Z,27.90
2023-02-09T05:30:06.868Z,28.10
2023-02-09T05:35:10.722Z,27.80
2023-02-09T05:40:13.970Z,28.70
2023-02-09T05:45:17.626Z,27.20
2023-02-09T05:50:20.578Z,27.30
2023-02-09T05:55:23.540Z,26.60
2023-02-09T06:00:27.342Z,28.90
2023-02-09T06:05:30.260Z,27.40
2023-02-09T06:10:33.257Z,28.20
2023-02-09T06:15:36.218Z,29.50
2023-02-09T06:20:39.221Z,29.60
2023-02-09T06:25:42.424Z,29.00
2023-02-09T06:30:50.794Z,28.90
2023-02-09T06:35:54.376Z,31.10
2023-02-09T06:40:57.401Z,31.20
2023-02-09T06:46:09.420Z,33.40
2023-02-09T06:51:14.833Z,34.10
2023-02-09T06:56:18.290Z,32.90
2023-02-09T07:01:21.141Z,33.70
2023-02-09T07:06:24.054Z,34.40
2023-02-09T07:11:27.021Z,32.90
2023-02-09T07:16:30.236Z,36.10
2023-02-09T07:21:33.078Z,37.30
2023-02-09T07:26:35.973Z,35.60
2023-02-09T07:31:39.180Z,38.70
2023-02-09T07:36:42.282Z,35.80
2023-02-09T07:41:48.419Z,34.90
2023-02-09T07:46:52.070Z,35.10
2023-02-09T07:51:54.947Z,31.80
2023-02-09T07:56:58.173Z,36.70
2023-02-09T08:02:01.071Z,34.40
2023-02-09T08:07:03.970Z,34.30
2023-02-09T08:12:08.109Z,33.80
2023-02-09T08:17:21.132Z,34.60
2023-02-09T08:22:24.811Z,35.50
2023-02-09T08:27:28.620Z,33.70
2023-02-09T08:32:31.635Z,36.40
2023-02-09T08:37:34.564Z,34.50
2023-02-09T08:42:37.487Z,35.40
2023-02-09T08:47:40.475Z,34.20
2023-02-09T08:52:43.432Z,36.40
2023-02-09T08:57:46.437Z,36.30
2023-02-09T09:02:49.274Z,37.60
2023-02-09T09:07:52.227Z,37.20
2023-02-09T09:12:55.186Z,36.10
2023-02-09T09:17:58.077Z,35.00
2023-02-09T09:23:02.140Z,36.80
2023-02-09T09:28:05.411Z,35.40
2023-02-09T09:33:08.362Z,36.30
2023-02-09T09:38:11.331Z,36.40
2023-02-09T09:43:22.105Z,36.00
2023-02-09T09:48:27.838Z,35.50
2023-02-09T09:53:33.940Z,35.30
2023-02-09T09:58:41.688Z,35.70
2023-02-09T10:03:44.641Z,36.30
2023-02-09T10:09:33.568Z,34.80
2023-02-09T10:14:36.757Z,34.90
2023-02-09T10:19:39.694Z,36.40
2023-02-09T10:24:42.674Z,35.60
2023-02-09T10:29:45.581Z,33.00
2023-02-09T10:34:51.908Z,33.40
2023-02-09T10:40:32.307Z,33.60
2023-02-09T10:45:43.240Z,28.50
2023-02-09T10:50:50.266Z,28.80
2023-02-09T10:56:05.851Z,27.40
2023-02-09T11:01:08.977Z,26.70
2023-02-09T11:06:20.519Z,22.80
2023-02-09T11:11:37.818Z,19.40
2023-02-09T11:16:50.304Z,19.60
2023-02-09T11:22:19.560Z,17.30
2023-02-09T11:33:02.592Z,19.50
2023-02-09T11:38:15.963Z,20.80
2023-02-09T11:43:25.317Z,20.70
2023-02-09T11:48:31.867Z,19.50
2023-02-09T11:54:04.063Z,20.40
2023-02-09T11:59:37.202Z,20.20
2023-02-09T12:05:00.684Z,22.30
2023-02-09T12:10:28.615Z,19.20
2023-02-09T12:15:59.296Z,20.40
2023-02-09T12:21:06.822Z,20.20
2023-02-09T12:26:16.422Z,18.60
2023-02-09T12:31:22.196Z,20.40
2023-02-09T12:36:28.933Z,18.80
2023-02-09T12:41:34.703Z,16.80
2023-02-09T12:46:54.543Z,16.00
2023-02-09T12:52:00.617Z,16.50
2023-02-09T12:57:16.196Z,14.90
2023-02-09T13:02:24.261Z,13.20
2023-02-09T13:07:43.037Z,13.50
2023-02-09T13:13:08.933Z,11.50
2023-02-09T13:18:50.684Z,11.40
2023-02-09T13:24:11.677Z,11.80
2023-02-09T13:29:22.252Z,11.40
2023-02-09T13:35:08.505Z,11.90
2023-02-09T13:40:25.768Z,11.00
2023-02-09T13:45:30.066Z,11.40
2023-02-09T13:50:57.100Z,10.20
2023-02-09T13:56:00.918Z,11.80
2023-02-09T14:01:35.227Z,10.90
2023-02-09T14:06:50.176Z,10.50
2023-02-09T14:11:55.996Z,11.00
2023-02-09T14:17:26.733Z,11.20
2023-02-09T14:22:35.561Z,10.10
2023-02-09T14:27:39.342Z,10.10
2023-02-09T14:32:45.486Z,10.80
2023-02-09T14:37:52.194Z,10.30
2023-02-09T14:43:11.058Z,10.90
2023-02-09T14:48:25.161Z,11.10
2023-02-09T14:53:31.811Z,11.40
2023-02-09T14:58:34.798Z,11.20
2023-02-09T15:03:37.698Z,11.30
2023-02-09T15:08:40.918Z,11.70
2023-02-09T15:13:43.885Z,11.70
2023-02-09T15:18:47.406Z,12.60
2023-02-09T15:23:50.433Z,13.20
2023-02-09T15:28:54.225Z,13.40
2023-02-09T15:33:57.305Z,13.50
2023-02-09T15:39:00.380Z,13.50
2023-02-09T15:44:35.828Z,14.00
2023-02-09T15:49:38.823Z,14.40
2023-02-09T15:54:42.332Z,13.70
2023-02-09T15:59:46.507Z,14.00
2023-02-09T16:04:49.763Z,14.40
2023-02-09T16:09:53.470Z,15.10
2023-02-09T16:14:56.661Z,14.70
2023-02-09T16:19:59.813Z,14.80
2023-02-09T16:25:25.577Z,16.00
2023-02-09T16:30:30.646Z,15.20
2023-02-09T16:35:35.332Z,15.60
2023-02-09T16:40:38.578Z,16.10
2023-02-09T16:45:44.726Z,16.90
2023-02-09T16:50:53.402Z,15.80
2023-02-09T16:55:56.221Z,17.20
2023-02-09T17:00:59.198Z,17.70
2023-02-09T17:06:03.140Z,17.30
2023-02-09T17:11:06.355Z,18.60
2023-02-09T17:16:16.145Z,19.00
2023-02-09T17:21:29.493Z,18.20
2023-02-09T17:26:32.405Z,18.00
2023-02-09T17:31:50.707Z,17.70
2023-02-09T17:36:56.541Z,19.50
2023-02-09T17:41:59.995Z,17.50
2023-02-09T17:47:03.505Z,17.00
2023-02-09T17:52:06.401Z,18.60
2023-02-09T17:57:14.157Z,17.60
2023-02-09T18:02:18.026Z,17.90
2023-02-09T18:07:21.064Z,18.80
2023-02-09T18:12:29.455Z,18.90
2023-02-09T18:22:35.591Z,19.90
2023-02-09T18:27:38.462Z,19.60
2023-02-09T18:32:42.040Z,19.40
2023-02-09T18:37:47.173Z,21.00
2023-02-09T18:42:51.406Z,21.10
2023-02-09T18:47:54.522Z,23.10
2023-02-09T18:53:03.208Z,22.70
2023-02-09T18:58:06.934Z,21.30
2023-02-09T19:03:10.242Z,21.50
2023-02-09T19:08:13.936Z,20.80
2023-02-09T19:13:16.806Z,21.60
2023-02-09T19:18:19.768Z,20.40
2023-02-09T19:23:24.699Z,22.70
2023-02-09T19:28:27.978Z,22.00
2023-02-09T19:33:30.953Z,21.80
2023-02-09T19:38:33.894Z,20.50
2023-02-09T19:43:36.769Z,21.40
2023-02-09T19:48:40.281Z,22.30
2023-02-09T19:53:45.809Z,20.70
2023-02-09T19:58:48.802Z,22.30
2023-02-09T20:03:52.399Z,23.10
2023-02-09T20:08:56.378Z,23.30
2023-02-09T20:19:07.205Z,22.10
2023-02-09T20:24:12.180Z,22.00
2023-02-09T20:29:16.886Z,22.90
2023-02-09T20:34:21.426Z,21.90
2023-02-09T20:39:24.564Z,22.60
2023-02-09T20:44:46.503Z,23.50
2023-02-09T20:49:49.389Z,22.60
2023-02-09T20:54:52.320Z,22.00
2023-02-09T20:59:57.526Z,22.80
2023-02-09T21:05:00.527Z,22.50
2023-02-09T21:10:03.544Z,22.30
2023-02-09T21:15:07.074Z,23.20
2023-02-09T21:20:10.195Z,23.90
2023-02-09T21:25:13.932Z,23.80
2023-02-09T21:30:16.855Z,24.10
2023-02-09T21:35:19.854Z,24.00
2023-02-09T21:40:23.807Z,23.70
2023-02-09T21:45:26.740Z,22.90
2023-02-09T21:50:29.683Z,23.00
2023-02-09T21:55:32.493Z,23.30
2023-02-09T22:00:35.915Z,23.60
2023-02-09T22:05:38.819Z,22.30
2023-02-09T22:10:42.670Z,22.50
2023-02-09T22:15:45.786Z,22.90
2023-02-09T22:20:49.246Z,21.10
2023-02-09T22:25:58.522Z,21.70
2023-02-09T22:31:10.140Z,21.80
2023-02-09T22:36:16.109Z,21.40
2023-02-09T22:41:21.921Z,21.90
2023-02-09T22:46:31.696Z,20.80
2023-02-09T22:51:35.723Z,19.20
2023-02-09T22:56:38.732Z,19.40
2023-02-09T23:01:41.972Z,20.30
2023-02-09T23:06:45.280Z,19.50
2023-02-09T23:11:48.162Z,17.90
2023-02-09T23:16:51.521Z,19.20
2023-02-09T23:21:56.104Z,20.20
2023-02-09T23:26:59.074Z,19.70
2023-02-09T23:32:01.949Z,17.30
2023-02-09T23:37:13.335Z,19.30
2023-02-09T23:42:21.751Z,18.30
2023-02-09T23:47:24.701Z,18.60
2023-02-09T23:52:27.667Z,19.60
2023-02-09T23:57:31.245Z,18.20
